Data for 02/02/2009

Time Sea-Level Adjusted Pressure Absolute Pressure Temperature Relative Humidity Dew Point   
(mb) (inHg) (mb) (inHg) (C) (F) (%) (C) (F)
00:05 1022 30.18 852 25.16 -0.7 30.7 45 -11.2 11.8
00:10 1022 30.18 852 25.16 -0.7 30.8 46 -11 12.2
00:15 1022 30.18 852 25.16 -0.5 31.1 45 -10.9 12.4
00:20 1023 30.21 852 25.16 -0.3 31.4 46 -10.7 12.8
00:25 1023 30.21 852 25.16 -0.1 31.9 45 -10.7 12.7
00:30 1023 30.21 852 25.16 -0.3 31.4 44 -11.2 11.9
00:35 1023 30.21 852 25.16 -0.6 30.9 45 -11 12.1
00:40 1023 30.21 852 25.16 -0.8 30.6 46 -11.1 12.1
00:45 1023 30.21 852 25.16 -0.7 30.7 45 -11.1 12
00:50 1023 30.21 852 25.16 -0.7 30.8 45 -11.1 11.9
00:55 1022 30.18 852 25.16 -0.7 30.8 45 -11.1 12.1
01:00 1022 30.18 852 25.16 -0.6 30.8 46 -10.9 12.3
01:05 1022 30.18 852 25.16 -0.6 30.9 46 -10.8 12.6
01:10 1022 30.18 852 25.16 -0.6 31 45 -11 12.2
01:15 1023 30.21 852 25.16 -0.5 31.1 46 -10.9 12.4
01:20 1023 30.21 852 25.16 -0.4 31.2 46 -10.7 12.7
01:25 1023 30.21 852 25.16 -0.4 31.3 46 -10.8 12.6
01:30 1023 30.21 852 25.16 -0.4 31.3 46 -10.7 12.7
01:35 1023 30.21 852 25.16 -0.4 31.3 46 -10.6 12.9
01:40 1023 30.21 852 25.16 -0.4 31.2 46 -10.6 12.9
01:45 1023 30.21 852 25.16 -0.5 31.1 47 -10.6 13
01:50 1023 30.21 852 25.16 -0.4 31.2 47 -10.4 13.2
01:55 1023 30.21 852 25.16 -0.4 31.2 47 -10.4 13.3
02:00 1023 30.21 852 25.16 -0.4 31.2 47 -10.4 13.2
02:05 1023 30.21 852 25.16 -0.3 31.4 47 -10.5 13.2
02:10 1023 30.21 852 25.16 -0.3 31.4 47 -10.3 13.5
02:15 1023 30.21 852 25.16 -0.4 31.4 47 -10.2 13.6
02:20 1023 30.21 852 25.16 -0.4 31.2 49 -10 14
02:25 1023 30.21 852 25.16 -0.6 31 48 -10.2 13.6
02:30 1023 30.21 852 25.16 -0.6 31 48 -10.2 13.7
02:35 1023 30.21 852 25.16 -0.6 30.9 48 -10.2 13.7
02:40 1022 30.18 852 25.16 -0.5 31 48 -10.2 13.6
02:45 1022 30.18 852 25.16 -0.5 31.2 48 -10.1 13.8
02:50 1022 30.18 852 25.16 -0.4 31.2 48 -10.1 13.8
02:55 1023 30.21 852 25.16 -0.4 31.4 48 -10.2 13.6
03:00 1023 30.21 852 25.16 -0.3 31.4 48 -10 13.9
03:05 1022 30.18 852 25.16 -0.4 31.3 48 -10 13.9
03:10 1022 30.18 852 25.16 -0.3 31.4 48 -10.1 13.8
03:15 1022 30.18 851 25.13 -0.2 31.6 48 -10 14
03:20 1022 30.18 851 25.13 -0.2 31.7 47 -10.1 13.9
03:25 1022 30.18 852 25.16 -0 31.9 47 -10.2 13.7
03:30 1022 30.18 852 25.16 0.1 32.1 46 -10.3 13.4
03:35 1023 30.21 852 25.16 0.2 32.4 46 -10.1 13.9
03:40 1022 30.18 852 25.16 0.1 32.2 47 -10 14
03:45 1022 30.18 852 25.16 0.1 32.2 46 -10.1 13.8
03:50 1022 30.18 852 25.16 0.2 32.3 46 -10.2 13.7
03:55 1022 30.18 852 25.16 0.3 32.6 45 -10.2 13.6
04:00 1022 30.18 852 25.16 0.4 32.7 45 -10.1 13.8
04:05 1022 30.18 852 25.16 0.5 32.8 45 -10.2 13.7
04:10 1022 30.18 852 25.16 0.5 32.9 46 -9.9 14.1
04:15 1022 30.18 852 25.16 0.3 32.5 46 -9.9 14.1
04:20 1022 30.18 852 25.16 0.2 32.4 46 -10 14
04:25 1022 30.18 852 25.16 0.2 32.4 47 -9.8 14.3
04:30 1022 30.18 852 25.16 0.3 32.5 46 -9.9 14.1
04:35 1022 30.18 852 25.16 0.4 32.6 47 -9.6 14.6
04:40 1022 30.18 852 25.16 0.3 32.5 48 -9.5 14.8
04:45 1022 30.18 852 25.16 -0.2 31.7 52 -8.8 16.2
04:50 1022 30.18 852 25.16 -0.8 30.6 53 -9.2 15.4
04:55 1022 30.18 852 25.16 -0.6 30.8 53 -9.1 15.5
05:00 1022 30.18 852 25.16 -0.7 30.7 55 -8.8 16.2
05:05 1022 30.18 851 25.13 -0.9 30.4 56 -8.7 16.4
05:10 1022 30.18 851 25.13 -0.8 30.6 53 -9.1 15.6
05:15 1022 30.18 851 25.13 -0.4 31.3 52 -9.1 15.6
05:20 1022 30.18 851 25.13 -0.2 31.6 54 -8.5 16.7
05:25 1022 30.18 851 25.13 -0.6 30.9 54 -8.9 15.9
05:30 1022 30.18 851 25.13 -0.8 30.6 55 -8.7 16.3
05:35 1022 30.18 851 25.13 -0.8 30.5 55 -8.8 16.1
05:40 1022 30.18 851 25.13 -0.7 30.8 53 -9 15.8
05:45 1022 30.18 851 25.13 -0.6 31 53 -8.9 16
05:50 1022 30.18 851 25.13 -0.5 31.1 52 -9.2 15.4
05:55 1022 30.18 851 25.13 -0.2 31.6 51 -9.1 15.6
06:00 1022 30.18 851 25.13 -0.1 31.8 51 -9 15.8
06:05 1022 30.18 851 25.13 0 32 50 -9.3 15.3
06:10 1022 30.18 851 25.13 0.3 32.5 49 -9.1 15.6
06:15 1022 30.18 851 25.13 0.4 32.7 49 -9 15.7
06:20 1021 30.15 851 25.13 0.4 32.7 50 -8.8 16.1
06:25 1021 30.15 851 25.13 0.4 32.7 50 -8.8 16.1
06:30 1021 30.15 851 25.13 0.4 32.7 50 -8.9 16.1
06:35 1021 30.15 850 25.1 0.5 32.9 50 -8.7 16.3
06:40 1021 30.15 850 25.1 0.4 32.8 50 -8.7 16.3
06:45 1021 30.15 850 25.1 0.6 33.1 50 -8.8 16.2
06:50 1021 30.15 850 25.1 0.7 33.2 50 -8.6 16.5
06:55 1021 30.15 850 25.1 0.8 33.4 52 -8.1 17.4
07:00 1021 30.15 850 25.1 0.2 32.4 56 -7.5 18.6
07:05 1021 30.15 850 25.1 -0.3 31.5 54 -8.4 16.9
07:10 1021 30.15 850 25.1 -0.2 31.7 55 -8.1 17.3
07:15 1021 30.15 850 25.1 -0.2 31.6 54 -8.4 16.9
07:20 1021 30.15 850 25.1 -0.2 31.6 54 -8.4 16.8
07:25 1021 30.15 850 25.1 -0.2 31.6 54 -8.4 16.9
07:30 1021 30.15 850 25.1 -0.2 31.7 54 -8.3 17
07:35 1021 30.15 850 25.1 0 32 54 -8.1 17.4
07:40 1021 30.15 850 25.1 0.1 32.2 53 -8.3 17.1
07:45 1021 30.15 850 25.1 0.4 32.7 52 -8.4 17
07:50 1021 30.15 850 25.1 0.6 33.1 52 -8.1 17.4
07:55 1021 30.15 850 25.1 0.5 32.9 52 -8.2 17.3
08:00 1021 30.15 850 25.1 0.5 33 52 -8.2 17.3
08:05 1021 30.15 850 25.1 0.6 33.1 53 -7.8 17.9
08:10 1021 30.15 850 25.1 0.4 32.7 56 -7.4 18.7
08:15 1021 30.15 851 25.13 0 32 56 -7.8 17.9
08:20 1021 30.15 851 25.13 0 32.1 55 -7.9 17.8
08:25 1021 30.15 851 25.13 0.1 32.1 56 -7.6 18.2
08:30 1021 30.15 851 25.13 0 32 56 -7.8 18
08:35 1021 30.15 851 25.13 -0.1 31.8 56 -7.9 17.8
08:40 1022 30.18 851 25.13 -0.1 31.9 57 -7.7 18.2
08:45 1022 30.18 851 25.13 -0 32 56 -7.7 18.1
08:50 1022 30.18 851 25.13 0 32 56 -7.8 17.9
08:55 1022 30.18 851 25.13 0.1 32.1 55 -7.8 17.9
09:00 1022 30.18 851 25.13 0 32 56 -7.8 18
09:05 1022 30.18 851 25.13 -0.1 31.7 54 -8.3 17
09:10 1022 30.18 851 25.13 0.4 32.7 52 -8.4 16.8
09:15 1022 30.18 851 25.13 0.5 33 53 -8.1 17.5
09:20 1022 30.18 851 25.13 1.1 33.9 50 -8.2 17.2
09:25 1022 30.18 851 25.13 1 33.8 51 -8 17.6
09:30 1022 30.18 851 25.13 1 33.8 53 -7.6 18.2
09:35 1022 30.18 851 25.13 0.9 33.6 52 -7.8 18
09:40 1022 30.18 851 25.13 1 33.7 52 -7.8 18
09:45 1022 30.18 851 25.13 0.9 33.6 53 -7.7 18.2
09:50 1022 30.18 851 25.13 0.8 33.4 54 -7.5 18.4
09:55 1022 30.18 851 25.13 1.2 34.1 53 -7.4 18.7
10:00 1022 30.18 851 25.13 1.5 34.6 52 -7.3 18.9
10:05 1022 30.18 851 25.13 1.7 35.1 52 -7.2 19
10:10 1022 30.18 851 25.13 1.9 35.4 51 -7.1 19.2
10:15 1022 30.18 851 25.13 2.1 35.7 51 -7 19.4
10:20 1022 30.18 851 25.13 2.3 36.2 50 -7 19.5
10:25 1022 30.18 851 25.13 2.6 36.8 49 -7 19.4
10:30 1022 30.18 851 25.13 2.9 37.3 49 -6.8 19.7
10:35 1022 30.18 851 25.13 3 37.4 49 -6.8 19.8
10:40 1022 30.18 851 25.13 3.1 37.6 49 -6.7 19.9
10:45 1022 30.18 851 25.13 3.2 37.7 49 -6.6 20
10:50 1022 30.18 851 25.13 3.3 37.9 49 -6.6 20.2
10:55 1022 30.18 851 25.13 3.3 37.9 50 -6.2 20.8
11:00 1022 30.18 851 25.13 3.2 37.8 50 -6.1 21
11:05 1022 30.18 851 25.13 3.3 37.9 50 -6.1 20.9
11:10 1022 30.18 851 25.13 3.5 38.3 50 -6.1 21.1
11:15 1022 30.18 851 25.13 3.6 38.5 50 -6 21.3
11:20 1022 30.18 851 25.13 3.7 38.7 49 -5.9 21.3
11:25 1022 30.18 851 25.13 3.8 38.9 50 -5.8 21.6
11:30 1022 30.18 851 25.13 3.8 38.9 50 -5.7 21.7
11:35 1022 30.18 851 25.13 3.8 38.9 49 -5.9 21.4
11:40 1022 30.18 851 25.13 3.9 39.1 48 -6 21.2
11:45 1022 30.18 851 25.13 4.1 39.4 48 -5.9 21.3
11:50 1022 30.18 851 25.13 4.3 39.7 48 -5.8 21.6
11:55 1022 30.18 851 25.13 4.4 39.8 48 -5.7 21.8
12:00 1022 30.18 851 25.13 4.3 39.8 49 -5.5 22.1
12:05 1022 30.18 851 25.13 4.3 39.8 49 -5.6 21.9
12:10 1022 30.18 851 25.13 4.4 39.9 49 -5.4 22.3
12:15 1022 30.18 851 25.13 4.4 39.9 49 -5.4 22.4
12:20 1022 30.18 851 25.13 4.4 39.8 49 -5.4 22.4
12:25 1022 30.18 851 25.13 4.5 40.1 49 -5.3 22.4
12:30 1022 30.18 851 25.13 4.6 40.3 49 -5.3 22.5
12:35 1022 30.18 851 25.13 4.6 40.3 49 -5.3 22.5
12:40 1022 30.18 851 25.13 4.7 40.4 49 -5.1 22.8
12:45 1022 30.18 851 25.13 4.6 40.2 50 -5 22.9
12:50 1022 30.18 851 25.13 4.6 40.3 49 -5.1 22.8
12:55 1022 30.18 851 25.13 4.6 40.4 49 -5.1 22.8
13:00 1022 30.18 851 25.13 4.6 40.3 49 -5.2 22.6
13:05 1022 30.18 851 25.13 4.7 40.4 49 -5.2 22.7
13:10 1022 30.18 851 25.13 4.7 40.5 49 -5.2 22.7
13:15 1022 30.18 851 25.13 4.7 40.5 49 -5.2 22.6
13:20 1022 30.18 851 25.13 4.8 40.6 49 -5.1 22.8
13:25 1022 30.18 851 25.13 4.9 40.8 48 -5.1 22.8
13:30 1022 30.18 851 25.13 5 41 48 -5 23
13:35 1022 30.18 851 25.13 5 41 49 -4.7 23.5
13:40 1022 30.18 851 25.13 5 41 49 -4.8 23.3
13:45 1022 30.18 851 25.13 5 41.1 48 -5 23
13:50 1022 30.18 851 25.13 5 40.9 49 -4.8 23.3
13:55 1022 30.18 851 25.13 5 40.9 49 -4.8 23.3
14:00 1022 30.18 851 25.13 5 41 48 -5 22.9
14:05 1022 30.18 851 25.13 5 41 48 -5 23
14:10 1022 30.18 851 25.13 5.2 41.3 49 -4.8 23.4
14:15 1022 30.18 851 25.13 5.2 41.4 47 -5.1 22.9
14:20 1022 30.18 851 25.13 5.2 41.4 48 -4.8 23.3
14:25 1022 30.18 851 25.13 5.1 41.2 49 -4.8 23.3
14:30 1022 30.18 851 25.13 5.1 41.2 49 -4.8 23.3
14:35 1022 30.18 851 25.13 5.1 41.2 48 -4.9 23.2
14:40 1022 30.18 851 25.13 5.2 41.3 49 -4.8 23.4
14:45 1022 30.18 851 25.13 5.1 41.2 48 -4.9 23.3
14:50 1022 30.18 851 25.13 5 40.9 48 -5.1 22.9
14:55 1022 30.18 851 25.13 4.8 40.6 49 -5 23
15:00 1022 30.18 851 25.13 4.8 40.7 49 -5 22.9
15:05 1022 30.18 851 25.13 4.9 40.8 49 -4.9 23.1
15:10 1022 30.18 851 25.13 5 40.9 49 -4.9 23.3
15:15 1022 30.18 851 25.13 5.2 41.3 49 -4.7 23.6
15:20 1022 30.18 851 25.13 5.1 41.3 49 -4.6 23.7
15:25 1022 30.18 851 25.13 5.1 41.3 49 -4.7 23.5
15:30 1022 30.18 851 25.13 5.2 41.4 49 -4.7 23.6
15:35 1022 30.18 851 25.13 5.1 41.1 50 -4.5 23.9
15:40 1022 30.18 851 25.13 5.1 41.2 50 -4.3 24.2
15:45 1022 30.18 851 25.13 5.3 41.5 50 -4.3 24.3
15:50 1022 30.18 851 25.13 5.4 41.7 50 -4.2 24.5
15:55 1022 30.18 851 25.13 5.2 41.4 51 -4.1 24.7
16:00 1022 30.18 852 25.16 5.3 41.6 52 -3.8 25.2
16:05 1022 30.18 852 25.16 5.5 42 52 -3.4 25.8
16:10 1022 30.18 852 25.16 5.8 42.4 52 -3.3 26.1
16:15 1022 30.18 852 25.16 5.9 42.5 52 -3.2 26.2
16:20 1022 30.18 852 25.16 6 42.8 52 -3.2 26.2
16:25 1022 30.18 852 25.16 6 42.9 51 -3.2 26.2
16:30 1022 30.18 852 25.16 6.1 43 52 -3 26.6
16:35 1022 30.18 852 25.16 6 42.8 52 -3.1 26.5
16:40 1022 30.18 852 25.16 5.9 42.7 53 -2.9 26.8
16:45 1022 30.18 852 25.16 5.8 42.5 53 -2.9 26.8
16:50 1023 30.21 852 25.16 5.8 42.4 54 -2.7 27.1
16:55 1023 30.21 852 25.16 5.6 42.1 54 -2.9 26.8
17:00 1023 30.21 852 25.16 5.6 42.1 55 -2.8 26.9
17:05 1023 30.21 852 25.16 5.6 42.1 54 -2.8 26.9
17:10 1023 30.21 852 25.16 5.6 42.1 55 -2.8 27
17:15 1023 30.21 852 25.16 5.5 41.9 56 -2.7 27.2
17:20 1023 30.21 852 25.16 5.2 41.4 56 -2.9 26.8
17:25 1023 30.21 852 25.16 5 40.9 56 -3 26.6
17:30 1023 30.21 852 25.16 5.3 41.5 55 -3 26.6
17:35 1023 30.21 852 25.16 5.3 41.6 55 -2.9 26.8
17:40 1023 30.21 852 25.16 5.3 41.6 56 -2.8 26.9
17:45 1023 30.21 852 25.16 5.3 41.5 57 -2.6 27.4
17:50 1023 30.21 852 25.16 5.3 41.5 56 -2.8 26.9
17:55 1023 30.21 852 25.16 5.3 41.5 55 -2.9 26.7
18:00 1023 30.21 852 25.16 5.4 41.7 56 -2.8 27
18:05 1023 30.21 852 25.16 5.4 41.7 54 -3 26.6
18:10 1023 30.21 852 25.16 5.6 42 55 -2.8 26.9
18:15 1023 30.21 852 25.16 5.6 42 55 -2.8 26.9
18:20 1023 30.21 852 25.16 5.5 41.9 56 -2.7 27.2
18:25 1023 30.21 852 25.16 5.4 41.8 56 -2.7 27.2
18:30 1023 30.21 852 25.16 5.4 41.7 57 -2.6 27.4
18:35 1023 30.21 852 25.16 5.3 41.5 57 -2.6 27.3
18:40 1023 30.21 853 25.19 5.3 41.6 57 -2.6 27.3
18:45 1023 30.21 853 25.19 5.4 41.7 56 -2.7 27.1
18:50 1023 30.21 853 25.19 5.4 41.8 56 -2.6 27.3
18:55 1023 30.21 853 25.19 5.4 41.8 57 -2.5 27.5
19:00 1023 30.21 852 25.16 5.4 41.6 57 -2.5 27.5
19:05 1023 30.21 852 25.16 5.5 41.9 55 -2.7 27.1
19:10 1023 30.21 852 25.16 5.7 42.3 55 -2.6 27.4
19:15 1023 30.21 853 25.19 5.7 42.3 57 -2.2 28.1
19:20 1023 30.21 853 25.19 5.3 41.6 58 -2.2 28.1
19:25 1023 30.21 853 25.19 5 41 58 -2.5 27.6
19:30 1023 30.21 853 25.19 4.9 40.8 58 -2.8 27
19:35 1023 30.21 853 25.19 5 41.1 58 -2.6 27.3
19:40 1023 30.21 853 25.19 5 41.1 57 -2.8 26.9
19:45 1024 30.24 853 25.19 5.1 41.2 56 -2.8 26.9
19:50 1024 30.24 853 25.19 5.2 41.4 56 -2.8 26.9
19:55 1024 30.24 853 25.19 5.2 41.4 57 -2.6 27.4
20:00 1024 30.24 853 25.19 5 41.1 58 -2.6 27.3
20:05 1024 30.24 853 25.19 5 40.9 58 -2.7 27.1
20:10 1024 30.24 853 25.19 4.9 40.8 57 -2.8 27
20:15 1024 30.24 853 25.19 4.9 40.8 57 -2.8 26.9
20:20 1024 30.24 853 25.19 4.8 40.7 58 -2.7 27.1
20:25 1024 30.24 853 25.19 4.7 40.5 57 -3.1 26.5
20:30 1024 30.24 853 25.19 4.9 40.7 57 -3 26.6
20:35 1024 30.24 853 25.19 4.9 40.8 57 -3 26.6
20:40 1024 30.24 853 25.19 4.9 40.8 57 -3 26.6
20:45 1024 30.24 853 25.19 4.9 40.8 57 -3 26.6
20:50 1024 30.24 853 25.19 4.7 40.5 57 -3 26.7
20:55 1024 30.24 853 25.19 4.7 40.5 58 -2.9 26.7
21:00 1024 30.24 853 25.19 4.7 40.5 57 -3 26.7
21:05 1024 30.24 853 25.19 4.8 40.6 57 -2.9 26.7
21:10 1024 30.24 853 25.19 4.7 40.4 58 -2.9 26.8
21:15 1024 30.24 853 25.19 4.6 40.3 57 -3 26.5
21:20 1024 30.24 853 25.19 4.6 40.3 58 -2.9 26.8
21:25 1024 30.24 853 25.19 4.5 40.1 58 -2.9 26.7
21:30 1024 30.24 853 25.19 4.5 40.1 59 -2.9 26.8
21:35 1024 30.24 853 25.19 4.4 39.9 59 -3 26.7
21:40 1024 30.24 853 25.19 4.3 39.8 59 -2.9 26.7
21:45 1024 30.24 854 25.22 4.3 39.8 58 -3.2 26.2
21:50 1024 30.24 854 25.22 4.6 40.3 57 -3.2 26.3
21:55 1025 30.27 854 25.22 4.7 40.5 56 -3.2 26.2
22:00 1025 30.27 854 25.22 4.9 40.7 56 -3.2 26.3
22:05 1025 30.27 854 25.22 4.9 40.8 56 -3.1 26.5
22:10 1024 30.24 854 25.22 4.8 40.7 56 -3.2 26.3
22:15 1024 30.24 854 25.22 4.8 40.6 56 -3.1 26.3
22:20 1024 30.24 854 25.22 4.8 40.7 56 -3.3 26.1
22:25 1024 30.24 854 25.22 4.9 40.9 56 -3.1 26.4
22:30 1024 30.24 854 25.22 4.8 40.7 56 -3.2 26.3
22:35 1024 30.24 854 25.22 4.8 40.7 56 -3.1 26.4
22:40 1024 30.24 854 25.22 4.7 40.5 57 -3.1 26.4
22:45 1025 30.27 854 25.22 4.6 40.2 58 -3 26.5
22:50 1025 30.27 854 25.22 4.5 40.1 57 -3.2 26.2
22:55 1025 30.27 854 25.22 4.6 40.3 56 -3.3 26
23:00 1025 30.27 854 25.22 4.7 40.5 56 -3.2 26.3
23:05 1025 30.27 854 25.22 4.7 40.5 55 -3.5 25.7
23:10 1025 30.27 854 25.22 4.9 40.8 55 -3.3 26.1
23:15 1025 30.27 854 25.22 4.9 40.8 55 -3.5 25.8
23:20 1025 30.27 854 25.22 5 40.9 55 -3.4 25.9
23:25 1025 30.27 854 25.22 5 40.9 55 -3.4 25.8
23:30 1025 30.27 854 25.22 5 40.9 55 -3.4 25.9
23:35 1025 30.27 854 25.22 4.9 40.8 54 -3.6 25.5
23:40 1025 30.27 854 25.22 5 41 56 -3.1 26.5
23:45 1025 30.27 854 25.22 4.4 39.9 58 -3.1 26.4
23:50 1025 30.27 854 25.22 3.9 39 61 -3.1 26.5
23:55 1025 30.27 854 25.22 3.4 38 62 -3.2 26.3
24:00 1025 30.27 854 25.22 3.1 37.6 63 -3.3 26.1